Time;durP1;ratioP1;P1;durP2;ratioP2;P2;SDS_P1;SDS_P2;PMS_P1;PMS_P2;Temp;Humidity;BMP_temperature;BMP_pressure;BME280_temperature;BME280_humidity;BME280_pressure;Samples;Min_cycle;Max_cycle;Signal;HPM_P1;HPM_P2
2023/07/21 00:01:54;;;;;;;3.67;2.25;;;;;;;;;;6065076;23;20343;-80
2023/07/21 00:04:20;;;;;;;3.30;2.10;;;;;;;;;;6066686;23;20014;-80
2023/07/21 00:06:45;;;;;;;6.40;1.90;;;;;;;;;;6064755;23;20047;-80
2023/07/21 00:09:11;;;;;;;2.63;2.03;;;;;;;;;;6065177;23;20006;-80
2023/07/21 00:11:38;;;;;;;3.72;2.35;;;;;;;;;;6088864;23;20034;-80
2023/07/21 00:14:03;;;;;;;2.65;1.95;;;;;;;;;;6065273;23;19999;-80
2023/07/21 00:16:29;;;;;;;4.57;2.00;;;;;;;;;;6064928;23;20089;-80
2023/07/21 00:18:57;;;;;;;4.75;2.10;;;;;;;;;;6064979;23;19999;-80
2023/07/21 00:21:22;;;;;;;2.70;1.98;;;;;;;;;;6064910;23;20003;-81
2023/07/21 00:23:48;;;;;;;2.65;1.80;;;;;;;;;;6088847;23;20392;-80
2023/07/21 00:26:13;;;;;;;3.55;2.08;;;;;;;;;;6066662;23;20002;-80
2023/07/21 00:28:39;;;;;;;3.35;2.47;;;;;;;;;;6066890;23;20003;-81
2023/07/21 00:31:11;;;;;;;3.75;2.20;;;;;;;;;;6067666;23;20014;-80
2023/07/21 00:33:37;;;;;;;6.82;2.38;;;;;;;;;;6064922;23;19999;-80
2023/07/21 00:36:04;;;;;;;4.13;2.53;;;;;;;;;;6067252;23;20009;-80
2023/07/21 00:38:32;;;;;;;4.18;2.40;;;;;;;;;;6065797;23;19999;-80
2023/07/21 00:40:58;;;;;;;3.47;2.50;;;;;;;;;;6066501;23;20006;-80
2023/07/21 00:43:24;;;;;;;4.57;2.40;;;;;;;;;;6067763;23;20006;-80
2023/07/21 00:45:49;;;;;;;3.15;2.30;;;;;;;;;;6043099;23;20007;-80
2023/07/21 00:48:18;;;;;;;6.82;2.42;;;;;;;;;;6068472;23;20465;-80
2023/07/21 00:50:47;;;;;;;3.90;2.53;;;;;;;;;;6044382;23;20260;-81
2023/07/21 00:53:14;;;;;;;2.55;1.98;;;;;;;;;;6046903;23;20007;-80
2023/07/21 00:55:41;;;;;;;3.97;2.10;;;;;;;;;;6072660;23;19999;-80
2023/07/21 00:58:10;;;;;;;3.53;2.38;;;;;;;;;;6067819;23;20019;-80
2023/07/21 01:00:41;;;;;;;5.90;2.25;;;;;;;;;;6066964;23;20010;-80
2023/07/21 01:03:08;;;;;;;4.37;2.37;;;;;;;;;;6066911;23;20047;-80
2023/07/21 01:05:34;;;;;;;2.92;2.17;;;;;;;;;;6040917;23;19999;-80
2023/07/21 01:08:01;;;;;;;4.45;2.67;;;;;;;;;;6066208;23;20556;-80
2023/07/21 01:10:27;;;;;;;8.93;2.70;;;;;;;;;;6039658;23;20017;-80
2023/07/21 01:12:52;;;;;;;4.47;2.70;;;;;;;;;;6039479;23;20538;-80
2023/07/21 01:15:17;;;;;;;4.70;2.63;;;;;;;;;;6039209;23;20003;-80
2023/07/21 01:17:43;;;;;;;4.38;2.67;;;;;;;;;;6062857;23;20003;-80
2023/07/21 01:20:11;;;;;;;4.68;2.85;;;;;;;;;;6039170;23;20006;-81
2023/07/21 01:22:42;;;;;;;4.55;2.85;;;;;;;;;;6039736;23;20045;-81
2023/07/21 01:25:11;;;;;;;3.42;2.33;;;;;;;;;;6064331;23;20003;-80
2023/07/21 01:27:39;;;;;;;3.53;2.42;;;;;;;;;;6065127;23;20003;-79
2023/07/21 01:30:06;;;;;;;4.22;2.67;;;;;;;;;;6042686;23;20003;-80
2023/07/21 01:32:37;;;;;;;4.00;2.90;;;;;;;;;;6042777;23;20002;-80
2023/07/21 01:35:03;;;;;;;6.78;2.63;;;;;;;;;;6066390;23;19991;-80
2023/07/21 01:37:32;;;;;;;6.40;2.70;;;;;;;;;;6067646;23;20074;-80
2023/07/21 01:39:58;;;;;;;4.00;2.78;;;;;;;;;;6068259;23;20415;-80
2023/07/21 01:42:29;;;;;;;5.45;2.50;;;;;;;;;;6042461;23;20396;-80
2023/07/21 01:44:55;;;;;;;4.60;2.38;;;;;;;;;;6064624;23;20011;-80
2023/07/21 01:47:21;;;;;;;5.03;2.72;;;;;;;;;;6067902;23;19995;-80
2023/07/21 01:49:46;;;;;;;4.00;2.50;;;;;;;;;;6066575;23;20003;-80
2023/07/21 01:52:14;;;;;;;7.63;2.60;;;;;;;;;;6066343;23;20487;-80
2023/07/21 01:54:47;;;;;;;3.20;2.03;;;;;;;;;;6089959;23;20003;-80
2023/07/21 01:57:17;;;;;;;4.88;2.40;;;;;;;;;;6067617;23;20332;-80
2023/07/21 01:59:45;;;;;;;4.57;2.67;;;;;;;;;;6068809;23;20360;-80
2023/07/21 02:02:11;;;;;;;4.75;2.80;;;;;;;;;;6068003;23;20518;-80
2023/07/21 02:04:38;;;;;;;9.30;3.85;;;;;;;;;;6066218;23;20023;-80
2023/07/21 02:07:06;;;;;;;9.48;4.28;;;;;;;;;;6067825;23;20005;-80
2023/07/21 02:09:32;;;;;;;12.15;4.85;;;;;;;;;;6067422;23;19999;-80
2023/07/21 02:11:58;;;;;;;12.50;4.88;;;;;;;;;;6091041;23;20015;-80
2023/07/21 02:14:23;;;;;;;15.70;4.88;;;;;;;;;;6068110;23;20014;-80
2023/07/21 02:16:49;;;;;;;11.70;4.63;;;;;;;;;;6093804;23;20014;-80
2023/07/21 02:19:14;;;;;;;15.02;5.40;;;;;;;;;;6069904;23;20017;-80
2023/07/21 02:21:39;;;;;;;14.82;4.95;;;;;;;;;;6069062;23;20006;-80
2023/07/21 02:24:05;;;;;;;13.27;6.20;;;;;;;;;;6070856;23;20018;-80
2023/07/21 02:26:32;;;;;;;12.60;5.88;;;;;;;;;;6070045;23;20011;-80
2023/07/21 02:28:57;;;;;;;12.82;6.18;;;;;;;;;;6093095;23;20003;-80
2023/07/21 02:31:23;;;;;;;14.38;5.90;;;;;;;;;;6090371;23;20002;-80
2023/07/21 02:33:48;;;;;;;15.88;5.93;;;;;;;;;;6068021;23;20011;-80
2023/07/21 02:36:13;;;;;;;15.38;6.30;;;;;;;;;;6069922;23;19994;-80
2023/07/21 02:38:39;;;;;;;17.65;6.53;;;;;;;;;;6065242;23;20408;-80
2023/07/21 02:41:05;;;;;;;17.65;8.13;;;;;;;;;;6065557;23;20003;-80
2023/07/21 02:43:30;;;;;;;12.20;6.47;;;;;;;;;;6066920;23;20066;-79
2023/07/21 02:45:56;;;;;;;12.95;6.10;;;;;;;;;;6067257;23;20011;-80
2023/07/21 02:48:22;;;;;;;12.57;6.57;;;;;;;;;;6041669;23;20003;-80
2023/07/21 02:50:48;;;;;;;11.30;6.25;;;;;;;;;;6067253;23;19991;-80
2023/07/21 02:53:14;;;;;;;12.45;6.72;;;;;;;;;;6041252;23;20031;-81
2023/07/21 02:55:43;;;;;;;12.20;6.75;;;;;;;;;;6041672;23;20034;-80
2023/07/21 02:58:11;;;;;;;13.88;7.35;;;;;;;;;;6041590;23;20066;-80
2023/07/21 03:00:37;;;;;;;12.40;6.95;;;;;;;;;;6067057;23;20003;-80
2023/07/21 03:03:03;;;;;;;12.00;7.20;;;;;;;;;;6040217;23;20010;-80
2023/07/21 03:05:29;;;;;;;11.77;6.68;;;;;;;;;;6040651;23;20014;-80
2023/07/21 03:07:55;;;;;;;9.15;5.85;;;;;;;;;;6064880;23;20011;-80
2023/07/21 03:10:21;;;;;;;10.77;6.40;;;;;;;;;;6067287;23;20082;-80
2023/07/21 03:12:46;;;;;;;12.25;6.65;;;;;;;;;;6067128;23;20312;-80
2023/07/21 03:15:11;;;;;;;9.57;5.78;;;;;;;;;;6041467;23;20523;-80
2023/07/21 03:17:37;;;;;;;9.48;6.03;;;;;;;;;;6040992;23;20046;-80
2023/07/21 03:20:05;;;;;;;10.02;6.07;;;;;;;;;;6064662;23;20007;-80
2023/07/21 03:22:31;;;;;;;8.68;5.68;;;;;;;;;;6041438;23;20335;-80
2023/07/21 03:24:56;;;;;;;11.15;6.22;;;;;;;;;;6065179;23;20448;-80
2023/07/21 03:27:22;;;;;;;10.05;6.18;;;;;;;;;;6042308;23;20030;-80
2023/07/21 03:30:01;;;;;;;10.27;5.88;;;;;;;;;;6067747;23;20134;-80
2023/07/21 03:32:27;;;;;;;8.30;5.95;;;;;;;;;;6065754;23;20002;-80
2023/07/21 03:34:54;;;;;;;8.77;6.18;;;;;;;;;;6067650;23;20324;-79
2023/07/21 03:37:23;;;;;;;9.75;6.20;;;;;;;;;;6043956;23;20362;-80
2023/07/21 03:39:48;;;;;;;9.15;5.90;;;;;;;;;;6047294;23;20002;-80
2023/07/21 03:42:14;;;;;;;10.13;6.28;;;;;;;;;;6049398;23;20443;-80
2023/07/21 03:44:39;;;;;;;9.07;5.82;;;;;;;;;;6063715;23;20015;-81
2023/07/21 03:47:05;;;;;;;7.93;5.50;;;;;;;;;;6072958;23;20415;-84
2023/07/21 03:49:32;;;;;;;10.02;6.57;;;;;;;;;;6099277;23;20081;-81
2023/07/21 03:51:57;;;;;;;8.32;5.43;;;;;;;;;;6076461;23;20010;-80
2023/07/21 03:54:23;;;;;;;11.30;6.28;;;;;;;;;;6075560;23;20003;-80
2023/07/21 03:56:48;;;;;;;9.43;6.28;;;;;;;;;;6072812;23;20042;-80
2023/07/21 03:59:13;;;;;;;9.15;5.95;;;;;;;;;;6065416;23;20442;-81
2023/07/21 04:01:39;;;;;;;8.52;5.82;;;;;;;;;;6089238;23;20086;-80
2023/07/21 04:04:04;;;;;;;10.57;6.85;;;;;;;;;;6066870;23;20014;-80
2023/07/21 04:06:29;;;;;;;10.43;6.35;;;;;;;;;;6067326;23;20055;-80
2023/07/21 04:08:55;;;;;;;11.32;6.30;;;;;;;;;;6088938;23;20098;-80
2023/07/21 04:11:20;;;;;;;10.13;6.35;;;;;;;;;;6064910;23;20007;-80
2023/07/21 04:13:45;;;;;;;8.35;5.60;;;;;;;;;;6065277;23;20006;-80
2023/07/21 04:16:11;;;;;;;12.85;7.05;;;;;;;;;;6065410;23;20071;-80
2023/07/21 04:18:37;;;;;;;9.77;6.38;;;;;;;;;;6067066;23;20015;-80
2023/07/21 04:21:03;;;;;;;12.15;6.40;;;;;;;;;;6064936;23;20007;-80
2023/07/21 04:23:28;;;;;;;11.85;6.85;;;;;;;;;;6066478;23;20003;-80
2023/07/21 04:25:53;;;;;;;10.70;6.57;;;;;;;;;;6064945;23;20003;-80
2023/07/21 04:28:18;;;;;;;12.20;7.03;;;;;;;;;;6065017;23;20050;-80
2023/07/21 04:30:44;;;;;;;10.65;6.85;;;;;;;;;;6064672;23;20161;-80
2023/07/21 04:33:09;;;;;;;10.98;5.70;;;;;;;;;;6064511;23;20062;-80
2023/07/21 04:35:34;;;;;;;8.50;5.88;;;;;;;;;;6089079;23;20007;-80
2023/07/21 04:38:00;;;;;;;11.00;6.43;;;;;;;;;;6089026;23;19999;-80
2023/07/21 04:40:26;;;;;;;13.02;7.38;;;;;;;;;;6066951;23;19999;-80
2023/07/21 04:42:51;;;;;;;11.45;7.57;;;;;;;;;;6065036;23;20062;-80
2023/07/21 04:45:17;;;;;;;12.13;6.80;;;;;;;;;;6066632;23;20013;-80
2023/07/21 04:47:42;;;;;;;10.15;6.55;;;;;;;;;;6040793;23;20014;-80
2023/07/21 04:50:08;;;;;;;11.20;6.35;;;;;;;;;;6066563;23;20003;-80
2023/07/21 04:52:36;;;;;;;11.45;6.93;;;;;;;;;;6040758;23;19999;-80
2023/07/21 04:55:01;;;;;;;13.73;7.78;;;;;;;;;;6065040;23;20316;-80
2023/07/21 04:57:26;;;;;;;11.52;6.88;;;;;;;;;;6068146;23;19994;-80
2023/07/21 04:59:52;;;;;;;12.57;7.22;;;;;;;;;;6041453;23;20477;-80
2023/07/21 05:02:17;;;;;;;12.80;7.75;;;;;;;;;;6066393;23;20007;-80
2023/07/21 05:04:42;;;;;;;12.43;7.85;;;;;;;;;;6069111;23;20034;-80
2023/07/21 05:07:08;;;;;;;9.25;6.40;;;;;;;;;;6044168;23;20026;-80
2023/07/21 05:09:34;;;;;;;10.90;7.00;;;;;;;;;;6071333;23;19995;-80
2023/07/21 05:12:01;;;;;;;10.75;6.78;;;;;;;;;;6074773;23;20014;-80
2023/07/21 05:14:29;;;;;;;11.00;7.07;;;;;;;;;;6071950;23;19999;-80
2023/07/21 05:16:55;;;;;;;11.88;6.90;;;;;;;;;;6071703;23;19999;-80
2023/07/21 05:19:23;;;;;;;9.25;6.90;;;;;;;;;;6069313;23;20631;-81
2023/07/21 05:21:51;;;;;;;13.52;7.80;;;;;;;;;;6074412;23;20443;-80
2023/07/21 05:24:17;;;;;;;13.73;7.35;;;;;;;;;;6077063;23;20627;-80
2023/07/21 05:26:43;;;;;;;11.65;7.40;;;;;;;;;;6072380;23;20003;-80
2023/07/21 05:29:08;;;;;;;12.13;7.60;;;;;;;;;;6070503;23;20002;-80
2023/07/21 05:31:35;;;;;;;13.48;8.15;;;;;;;;;;6071038;23;20002;-80
2023/07/21 05:34:01;;;;;;;12.95;8.48;;;;;;;;;;6043281;23;20009;-80
2023/07/21 05:36:26;;;;;;;12.18;6.95;;;;;;;;;;6066560;23;20086;-80
2023/07/21 05:38:52;;;;;;;13.85;8.32;;;;;;;;;;6068248;23;20050;-80
2023/07/21 05:41:20;;;;;;;13.30;8.10;;;;;;;;;;6042287;23;20026;-80
2023/07/21 05:43:45;;;;;;;18.63;8.93;;;;;;;;;;6067980;23;20403;-81
2023/07/21 05:46:12;;;;;;;15.48;8.45;;;;;;;;;;6042747;23;20083;-80
2023/07/21 05:48:37;;;;;;;12.77;7.93;;;;;;;;;;6066279;23;20006;-80
2023/07/21 05:51:02;;;;;;;12.82;8.25;;;;;;;;;;6068027;23;20042;-80
2023/07/21 05:53:28;;;;;;;13.63;8.65;;;;;;;;;;6067806;23;19999;-80
2023/07/21 05:55:54;;;;;;;16.60;9.70;;;;;;;;;;6042658;23;20092;-80
2023/07/21 05:58:20;;;;;;;14.88;8.73;;;;;;;;;;6067061;23;20109;-80
2023/07/21 06:00:46;;;;;;;17.38;9.35;;;;;;;;;;6067303;23;20061;-80
2023/07/21 06:03:11;;;;;;;17.55;9.98;;;;;;;;;;6042542;23;20081;-80
2023/07/21 06:05:36;;;;;;;18.00;10.05;;;;;;;;;;6041999;23;20002;-80
2023/07/21 06:08:02;;;;;;;19.58;10.02;;;;;;;;;;6065805;23;20007;-80
2023/07/21 06:10:30;;;;;;;19.77;10.32;;;;;;;;;;6041841;23;20002;-80
2023/07/21 06:12:55;;;;;;;19.83;11.07;;;;;;;;;;6041622;23;20383;-80
2023/07/21 06:15:21;;;;;;;22.90;11.38;;;;;;;;;;6066354;23;19995;-80
2023/07/21 06:17:46;;;;;;;24.80;12.82;;;;;;;;;;6042016;23;20078;-80
2023/07/21 06:20:12;;;;;;;23.65;12.20;;;;;;;;;;6066026;23;20085;-80
2023/07/21 06:22:37;;;;;;;26.73;12.65;;;;;;;;;;6041551;23;20047;-80
2023/07/21 06:25:04;;;;;;;25.60;12.93;;;;;;;;;;6041881;23;20003;-80
2023/07/21 06:27:29;;;;;;;23.80;12.38;;;;;;;;;;6042158;23;20364;-80
2023/07/21 06:29:55;;;;;;;31.92;14.07;;;;;;;;;;6067801;23;19999;-80
2023/07/21 06:32:20;;;;;;;26.20;13.52;;;;;;;;;;6066197;23;20008;-80
2023/07/21 06:34:47;;;;;;;25.00;13.68;;;;;;;;;;6041877;23;19999;-81
2023/07/21 06:37:12;;;;;;;29.00;13.93;;;;;;;;;;6042349;23;20014;-80
2023/07/21 06:39:37;;;;;;;28.02;13.35;;;;;;;;;;6067387;23;19998;-80
2023/07/21 06:42:04;;;;;;;25.75;14.52;;;;;;;;;;6042399;23;20013;-80
2023/07/21 06:44:31;;;;;;;32.08;15.68;;;;;;;;;;6054148;23;20332;-80
2023/07/21 06:46:56;;;;;;;31.60;14.73;;;;;;;;;;6066246;23;20094;-80
2023/07/21 06:49:22;;;;;;;32.15;17.23;;;;;;;;;;6067148;23;20388;-80
2023/07/21 06:51:47;;;;;;;34.78;17.30;;;;;;;;;;6067808;23;19991;-80
2023/07/21 06:54:12;;;;;;;30.20;16.58;;;;;;;;;;6067837;23;20002;-80
2023/07/21 06:56:38;;;;;;;34.50;18.50;;;;;;;;;;6067870;23;20006;-80
2023/07/21 06:59:03;;;;;;;42.47;18.33;;;;;;;;;;6068695;23;20002;-80
2023/07/21 07:01:28;;;;;;;34.08;17.45;;;;;;;;;;6066090;23;19999;-80
2023/07/21 07:03:55;;;;;;;36.28;17.40;;;;;;;;;;6091058;23;19999;-80
2023/07/21 07:06:20;;;;;;;36.22;18.23;;;;;;;;;;6066146;23;20323;-80
2023/07/21 07:08:46;;;;;;;33.20;17.33;;;;;;;;;;6067304;23;20078;-80
2023/07/21 07:11:12;;;;;;;32.63;17.40;;;;;;;;;;6065288;23;20003;-80
2023/07/21 07:13:39;;;;;;;29.77;17.45;;;;;;;;;;6064851;23;20027;-81
2023/07/21 07:16:05;;;;;;;32.30;17.90;;;;;;;;;;6089174;23;20305;-80
2023/07/21 07:18:30;;;;;;;32.60;17.25;;;;;;;;;;6064915;23;20031;-80
2023/07/21 07:20:56;;;;;;;28.77;15.70;;;;;;;;;;6065703;23;20007;-81
2023/07/21 07:23:22;;;;;;;32.42;17.77;;;;;;;;;;6066968;23;19999;-80
2023/07/21 07:25:48;;;;;;;31.15;17.23;;;;;;;;;;6065293;23;20090;-80
2023/07/21 07:28:14;;;;;;;28.33;16.88;;;;;;;;;;6065674;23;20037;-81
2023/07/21 07:30:39;;;;;;;31.05;17.15;;;;;;;;;;6065075;23;20002;-81
2023/07/21 07:33:05;;;;;;;26.13;14.45;;;;;;;;;;6064997;23;20030;-81
2023/07/21 07:35:30;;;;;;;25.70;14.18;;;;;;;;;;6067359;23;20129;-81
2023/07/21 07:37:56;;;;;;;29.10;13.25;;;;;;;;;;6066973;23;20117;-81
2023/07/21 07:40:21;;;;;;;18.75;11.20;;;;;;;;;;6065432;23;20348;-80
2023/07/21 07:42:47;;;;;;;26.48;14.43;;;;;;;;;;6064974;23;20094;-81
2023/07/21 07:45:15;;;;;;;29.08;16.15;;;;;;;;;;6066946;23;20396;-80
2023/07/21 07:47:42;;;;;;;31.13;14.30;;;;;;;;;;6065623;23;20029;-81
2023/07/21 07:50:13;;;;;;;27.67;15.60;;;;;;;;;;6041522;23;20330;-80
2023/07/21 07:52:42;;;;;;;26.45;14.35;;;;;;;;;;6065658;23;20086;-80
2023/07/21 07:55:07;;;;;;;19.83;11.75;;;;;;;;;;6067103;23;20414;-81
2023/07/21 07:57:34;;;;;;;24.20;14.68;;;;;;;;;;6065936;23;20002;-80
2023/07/21 08:00:06;;;;;;;23.88;13.90;;;;;;;;;;6069027;23;19998;-81
2023/07/21 08:02:31;;;;;;;23.65;14.02;;;;;;;;;;6067432;23;20014;-81
2023/07/21 08:04:57;;;;;;;25.30;14.50;;;;;;;;;;6042402;23;20113;-80
2023/07/21 08:07:22;;;;;;;24.27;13.95;;;;;;;;;;6042035;23;20006;-80
2023/07/21 08:09:48;;;;;;;20.98;14.10;;;;;;;;;;6044262;23;20019;-80
2023/07/21 08:12:13;;;;;;;20.25;11.00;;;;;;;;;;6042715;23;20316;-81
2023/07/21 08:14:39;;;;;;;16.83;10.95;;;;;;;;;;6044378;23;20038;-81
2023/07/21 08:17:04;;;;;;;15.65;9.95;;;;;;;;;;6069808;23;20082;-80
2023/07/21 08:19:30;;;;;;;11.82;6.57;;;;;;;;;;6067228;23;20003;-81
2023/07/21 08:22:05;;;;;;;11.75;6.53;;;;;;;;;;6044790;23;20419;-81
2023/07/21 08:24:31;;;;;;;14.32;8.18;;;;;;;;;;6042091;23;20007;-81
2023/07/21 08:26:59;;;;;;;13.38;7.43;;;;;;;;;;6041578;23;20029;-80
2023/07/21 08:29:24;;;;;;;14.05;7.50;;;;;;;;;;6064983;23;20315;-81
2023/07/21 08:31:49;;;;;;;15.48;8.05;;;;;;;;;;6066448;23;19995;-80
2023/07/21 08:34:15;;;;;;;13.82;8.20;;;;;;;;;;6064998;23;20113;-80
2023/07/21 08:36:40;;;;;;;16.20;7.68;;;;;;;;;;6068071;23;20045;-81
2023/07/21 08:39:05;;;;;;;14.02;8.35;;;;;;;;;;6067230;23;20066;-80
2023/07/21 08:41:34;;;;;;;15.68;8.43;;;;;;;;;;6043537;23;19998;-80
2023/07/21 08:44:00;;;;;;;15.60;8.90;;;;;;;;;;6049158;23;20021;-81
2023/07/21 08:46:25;;;;;;;18.38;8.90;;;;;;;;;;6067304;23;20030;-81
2023/07/21 08:48:52;;;;;;;14.52;8.98;;;;;;;;;;6066610;23;20102;-80
2023/07/21 08:51:17;;;;;;;15.48;9.07;;;;;;;;;;6090747;23;20026;-81
2023/07/21 08:53:45;;;;;;;17.02;8.05;;;;;;;;;;6067586;23;20054;-80
2023/07/21 08:56:11;;;;;;;14.20;8.27;;;;;;;;;;6068832;23;20326;-80
2023/07/21 08:58:36;;;;;;;15.10;8.43;;;;;;;;;;6091095;23;20046;-80
2023/07/21 09:01:04;;;;;;;15.65;9.60;;;;;;;;;;6068822;23;19999;-80
2023/07/21 09:03:30;;;;;;;15.73;8.15;;;;;;;;;;6090837;23;20071;-80
2023/07/21 09:05:57;;;;;;;13.05;7.97;;;;;;;;;;6091150;23;20006;-80
2023/07/21 09:08:24;;;;;;;13.32;8.27;;;;;;;;;;6068757;23;20082;-80
2023/07/21 09:10:49;;;;;;;15.77;8.43;;;;;;;;;;6067224;23;20317;-81
2023/07/21 09:13:15;;;;;;;13.77;8.15;;;;;;;;;;6068663;23;20071;-80
2023/07/21 09:15:41;;;;;;;14.60;8.15;;;;;;;;;;6068605;23;20379;-80
2023/07/21 09:18:06;;;;;;;14.50;8.40;;;;;;;;;;6068823;23;19998;-80
2023/07/21 09:20:33;;;;;;;14.50;8.05;;;;;;;;;;6066720;23;20015;-80
2023/07/21 09:22:58;;;;;;;14.00;7.55;;;;;;;;;;6068876;23;20035;-80
2023/07/21 09:25:24;;;;;;;13.65;6.60;;;;;;;;;;6066963;23;20012;-80
2023/07/21 09:27:54;;;;;;;14.00;7.55;;;;;;;;;;6067092;23;20007;-80
2023/07/21 09:30:23;;;;;;;12.05;7.95;;;;;;;;;;6069021;23;20014;-80
2023/07/21 09:32:51;;;;;;;16.45;9.15;;;;;;;;;;6067751;23;19999;-80
2023/07/21 09:35:16;;;;;;;14.75;8.40;;;;;;;;;;6090909;23;20013;-79
2023/07/21 09:37:41;;;;;;;13.98;7.78;;;;;;;;;;6068663;23;20331;-80
2023/07/21 09:40:10;;;;;;;10.45;6.95;;;;;;;;;;6067643;23;20056;-79
2023/07/21 09:42:36;;;;;;;14.05;7.82;;;;;;;;;;6092839;23;20193;-80
2023/07/21 09:45:01;;;;;;;12.90;7.13;;;;;;;;;;6092193;23;20033;-80
2023/07/21 09:47:27;;;;;;;13.10;7.72;;;;;;;;;;6070608;23;20706;-80
2023/07/21 09:49:54;;;;;;;12.07;8.15;;;;;;;;;;6072134;23;19999;-80
2023/07/21 09:52:20;;;;;;;11.68;7.65;;;;;;;;;;6069371;23;19999;-80
2023/07/21 09:55:18;;;;;;;10.45;5.85;;;;;;;;;;6090831;23;20013;-81
2023/07/21 09:57:45;;;;;;;10.10;6.55;;;;;;;;;;6035716;23;20006;-80
2023/07/21 10:00:17;;;;;;;9.55;5.45;;;;;;;;;;6068751;23;20026;-80
2023/07/21 10:02:43;;;;;;;11.77;6.68;;;;;;;;;;6068279;23;20328;-80
2023/07/21 10:05:11;;;;;;;10.68;6.53;;;;;;;;;;6068663;23;20414;-80
2023/07/21 10:07:38;;;;;;;10.93;6.78;;;;;;;;;;6068220;23;20003;-80
2023/07/21 10:10:05;;;;;;;9.70;5.40;;;;;;;;;;6066891;23;20026;-81
2023/07/21 10:12:49;;;;;;;11.57;6.00;;;;;;;;;;6066461;23;20031;-80
2023/07/21 10:15:15;;;;;;;12.10;6.72;;;;;;;;;;6066711;23;20380;-80
2023/07/21 10:17:54;;;;;;;9.02;6.00;;;;;;;;;;6090684;23;20082;-80
2023/07/21 10:20:20;;;;;;;9.60;6.07;;;;;;;;;;6066373;23;20003;-80
2023/07/21 10:22:54;;;;;;;9.07;6.10;;;;;;;;;;6066513;23;20054;-80
2023/07/21 10:25:22;;;;;;;10.02;6.03;;;;;;;;;;6068238;23;20070;-80
2023/07/21 10:28:01;;;;;;;12.15;6.97;;;;;;;;;;6090232;23;20002;-80
2023/07/21 10:30:26;;;;;;;11.52;6.47;;;;;;;;;;6066231;23;20077;-80
2023/07/21 10:32:52;;;;;;;11.75;7.13;;;;;;;;;;6066393;23;20077;-80
2023/07/21 10:35:50;;;;;;;10.95;6.65;;;;;;;;;;6066502;23;20285;-80
2023/07/21 10:38:15;;;;;;;9.88;5.63;;;;;;;;;;6019522;23;20007;-80
2023/07/21 10:40:47;;;;;;;9.73;5.47;;;;;;;;;;6067518;23;19999;-80
2023/07/21 10:43:13;;;;;;;10.90;5.43;;;;;;;;;;6065854;23;19998;-81
2023/07/21 10:45:38;;;;;;;7.30;4.55;;;;;;;;;;6042397;23;20026;-80
2023/07/21 10:48:12;;;;;;;9.10;4.75;;;;;;;;;;6041844;23;20003;-80
2023/07/21 10:50:41;;;;;;;14.15;7.95;;;;;;;;;;6042117;23;20018;-81
2023/07/21 10:53:07;;;;;;;11.23;6.18;;;;;;;;;;6067544;23;20444;-80
2023/07/21 10:55:35;;;;;;;13.45;7.22;;;;;;;;;;6067531;23;20022;-81
2023/07/21 10:58:01;;;;;;;15.93;9.65;;;;;;;;;;6068005;23;20025;-80
2023/07/21 11:00:29;;;;;;;16.00;9.30;;;;;;;;;;6041316;23;20003;-80
2023/07/21 11:02:54;;;;;;;13.45;7.82;;;;;;;;;;6069036;23;20009;-81
2023/07/21 11:05:22;;;;;;;11.65;6.60;;;;;;;;;;6043632;23;20034;-80
2023/07/21 11:07:48;;;;;;;6.50;3.53;;;;;;;;;;6042430;23;20010;-80
2023/07/21 11:10:13;;;;;;;4.10;2.35;;;;;;;;;;6042527;23;20375;-80
2023/07/21 11:12:38;;;;;;;2.03;1.60;;;;;;;;;;6043021;23;19998;-80
2023/07/21 11:15:06;;;;;;;3.38;1.80;;;;;;;;;;6071275;23;20005;-80
2023/07/21 11:17:31;;;;;;;5.57;2.08;;;;;;;;;;6043191;23;20003;-80
2023/07/21 11:20:14;;;;;;;4.07;2.55;;;;;;;;;;6043571;23;20125;-80
2023/07/21 11:22:39;;;;;;;4.75;2.80;;;;;;;;;;6043532;23;20014;-80
2023/07/21 11:25:12;;;;;;;4.28;2.72;;;;;;;;;;6044808;23;20002;-81
2023/07/21 11:27:42;;;;;;;6.40;2.85;;;;;;;;;;6070731;23;20006;-80
2023/07/21 11:30:08;;;;;;;4.93;2.67;;;;;;;;;;6070214;23;19995;-80
2023/07/21 11:32:34;;;;;;;3.83;2.33;;;;;;;;;;6045280;23;20013;-80
2023/07/21 11:35:02;;;;;;;3.42;2.55;;;;;;;;;;6067109;23;20003;-80
2023/07/21 11:37:45;;;;;;;4.13;2.88;;;;;;;;;;6042842;23;20050;-80
2023/07/21 11:40:15;;;;;;;5.82;3.08;;;;;;;;;;6067792;23;20007;-79
2023/07/21 11:42:41;;;;;;;3.70;3.00;;;;;;;;;;6043118;23;20002;-81
2023/07/21 11:45:28;;;;;;;5.60;3.22;;;;;;;;;;6060440;23;20018;-80
2023/07/21 11:47:53;;;;;;;4.82;3.05;;;;;;;;;;6065138;23;20339;-80
2023/07/21 11:50:18;;;;;;;4.68;2.83;;;;;;;;;;6089352;23;20018;-80
2023/07/21 11:52:46;;;;;;;4.45;2.35;;;;;;;;;;6089320;23;20028;-80
2023/07/21 11:55:12;;;;;;;7.25;3.13;;;;;;;;;;6065655;23;20021;-81
2023/07/21 11:57:37;;;;;;;3.47;2.60;;;;;;;;;;6064883;23;19998;-81
2023/07/21 12:00:11;;;;;;;3.88;2.47;;;;;;;;;;6067076;23;19999;-81
2023/07/21 12:02:36;;;;;;;3.53;2.28;;;;;;;;;;6065250;23;20462;-80
2023/07/21 12:05:02;;;;;;;3.85;2.33;;;;;;;;;;6065529;23;20007;-81
2023/07/21 12:07:27;;;;;;;4.53;2.38;;;;;;;;;;6066739;23;20474;-80
2023/07/21 12:09:54;;;;;;;3.95;2.78;;;;;;;;;;6066919;23;19994;-80
2023/07/21 12:12:20;;;;;;;3.22;2.47;;;;;;;;;;6066704;23;20260;-80
2023/07/21 12:14:45;;;;;;;4.43;2.75;;;;;;;;;;6089359;23;20047;-80
2023/07/21 12:17:14;;;;;;;5.47;3.10;;;;;;;;;;6088582;23;20410;-80
2023/07/21 12:19:40;;;;;;;6.80;3.10;;;;;;;;;;6088688;23;20007;-81
2023/07/21 12:22:06;;;;;;;4.15;2.92;;;;;;;;;;6063638;23;20082;-81
2023/07/21 12:24:31;;;;;;;3.72;2.83;;;;;;;;;;6064395;23;20010;-80
2023/07/21 12:26:57;;;;;;;5.20;3.17;;;;;;;;;;6065856;23;20428;-80
2023/07/21 12:29:25;;;;;;;5.07;3.28;;;;;;;;;;6064444;23;19999;-81
2023/07/21 12:31:53;;;;;;;5.82;3.90;;;;;;;;;;6089425;23;20003;-80
2023/07/21 12:34:18;;;;;;;7.63;4.20;;;;;;;;;;6068126;23;20312;-80
2023/07/21 12:36:43;;;;;;;7.22;5.07;;;;;;;;;;6065380;23;20071;-80
2023/07/21 12:39:10;;;;;;;11.15;5.95;;;;;;;;;;6065660;23;20003;-80
2023/07/21 12:41:38;;;;;;;8.43;5.50;;;;;;;;;;6065752;23;20003;-80
2023/07/21 12:44:03;;;;;;;8.90;5.22;;;;;;;;;;6066663;23;20019;-80
2023/07/21 12:46:30;;;;;;;9.40;5.78;;;;;;;;;;6066709;23;20432;-80
2023/07/21 12:48:55;;;;;;;9.25;5.90;;;;;;;;;;6067790;23;20006;-80
2023/07/21 12:51:20;;;;;;;10.90;5.70;;;;;;;;;;6066759;23;20490;-80
2023/07/21 12:53:48;;;;;;;8.90;6.18;;;;;;;;;;6090458;23;20408;-80
2023/07/21 12:56:13;;;;;;;10.52;6.20;;;;;;;;;;6065770;23;20003;-80
2023/07/21 12:58:39;;;;;;;9.82;6.00;;;;;;;;;;6092585;23;20035;-80
2023/07/21 13:01:07;;;;;;;9.10;5.63;;;;;;;;;;6070727;23;19999;-80
2023/07/21 13:03:36;;;;;;;10.18;5.80;;;;;;;;;;6066989;23;20595;-80
2023/07/21 13:06:01;;;;;;;10.50;5.60;;;;;;;;;;6065817;23;20272;-80
2023/07/21 13:08:29;;;;;;;10.63;5.90;;;;;;;;;;6065571;23;20337;-80
2023/07/21 13:10:55;;;;;;;9.93;5.82;;;;;;;;;;6067183;23;20039;-80
2023/07/21 13:13:20;;;;;;;12.23;5.93;;;;;;;;;;6066786;23;19999;-80
2023/07/21 13:15:45;;;;;;;12.80;6.28;;;;;;;;;;6065438;23;20447;-80
2023/07/21 13:18:11;;;;;;;11.32;6.25;;;;;;;;;;6066947;23;19995;-80
2023/07/21 13:20:36;;;;;;;9.25;6.15;;;;;;;;;;6066640;23;19995;-80
2023/07/21 13:23:01;;;;;;;11.85;6.32;;;;;;;;;;6090065;23;20003;-80
2023/07/21 13:25:26;;;;;;;9.82;6.18;;;;;;;;;;6090756;23;20062;-81
2023/07/21 13:27:52;;;;;;;11.60;6.38;;;;;;;;;;6068380;23;20002;-80
2023/07/21 13:30:17;;;;;;;14.05;6.25;;;;;;;;;;6066633;23;20444;-80
2023/07/21 13:32:42;;;;;;;12.68;6.15;;;;;;;;;;6066906;23;19999;-80
2023/07/21 13:35:08;;;;;;;13.57;5.75;;;;;;;;;;6066694;23;20023;-80
2023/07/21 13:37:35;;;;;;;10.50;5.05;;;;;;;;;;6069218;23;20062;-80
2023/07/21 13:40:00;;;;;;;9.07;5.20;;;;;;;;;;6066686;23;20361;-80
2023/07/21 13:42:26;;;;;;;9.40;4.70;;;;;;;;;;6068613;23;20030;-80
2023/07/21 13:44:51;;;;;;;12.15;5.90;;;;;;;;;;6068509;23;20017;-80
2023/07/21 13:47:16;;;;;;;8.30;4.13;;;;;;;;;;6068368;23;19999;-80
2023/07/21 13:49:42;;;;;;;10.13;4.80;;;;;;;;;;6042592;23;20035;-80
2023/07/21 13:52:07;;;;;;;10.50;4.70;;;;;;;;;;6068374;23;20030;-80
2023/07/21 13:54:32;;;;;;;7.35;3.13;;;;;;;;;;6042434;23;20431;-81
2023/07/21 13:56:58;;;;;;;10.65;4.55;;;;;;;;;;6042742;23;20011;-80
2023/07/21 13:59:24;;;;;;;8.07;4.55;;;;;;;;;;6066529;23;19995;-80
2023/07/21 14:01:52;;;;;;;9.93;4.25;;;;;;;;;;6043174;23;20030;-80
2023/07/21 14:04:17;;;;;;;9.20;4.72;;;;;;;;;;6068590;23;20026;-80
2023/07/21 14:06:43;;;;;;;8.30;4.07;;;;;;;;;;6068634;23;20006;-80
2023/07/21 14:09:11;;;;;;;10.25;4.60;;;;;;;;;;6066577;23;20002;-80
2023/07/21 14:11:37;;;;;;;11.82;4.78;;;;;;;;;;6043611;23;19999;-80
2023/07/21 14:14:03;;;;;;;9.90;4.20;;;;;;;;;;6070722;23;20001;-80
2023/07/21 14:16:31;;;;;;;8.70;4.47;;;;;;;;;;6070036;23;19995;-80
2023/07/21 14:18:57;;;;;;;7.78;3.83;;;;;;;;;;6069203;23;20407;-81
2023/07/21 14:21:22;;;;;;;9.35;4.78;;;;;;;;;;6069431;23;20003;-81
2023/07/21 14:23:48;;;;;;;7.25;2.92;;;;;;;;;;6044638;23;20022;-81
2023/07/21 14:26:16;;;;;;;6.78;2.97;;;;;;;;;;6048154;23;20007;-81
2023/07/21 14:28:42;;;;;;;5.47;2.80;;;;;;;;;;6070375;23;19998;-81
2023/07/21 14:31:07;;;;;;;8.05;3.80;;;;;;;;;;6068751;23;20001;-81